Time;durP1;ratioP1;P1;durP2;ratioP2;P2;SDS_P1;SDS_P2;PMS_P1;PMS_P2;Temp;Humidity;BMP_temperature;BMP_pressure;BME280_temperature;BME280_humidity;BME280_pressure;Samples;Min_cycle;Max_cycle;Signal;HPM_P1;HPM_P2
2023/07/22 00:02:07;;;;;;;4.90;2.80;;;;;;;18.93;55.81;99893.98;112066;1247;21951;-81
2023/07/22 00:04:37;;;;;;;7.00;3.10;;;;;;;18.93;56.02;99891.33;111826;1247;22019;-81
2023/07/22 00:07:12;;;;;;;6.50;3.10;;;;;;;18.96;55.99;99890.83;111826;1248;23706;-80
2023/07/22 00:09:58;;;;;;;4.40;3.00;;;;;;;18.97;55.91;99885.71;112098;1244;21953;-78
2023/07/22 00:12:31;;;;;;;7.20;2.70;;;;;;;18.98;56.03;99881.44;112283;1243;23699;-79
2023/07/22 00:15:11;;;;;;;6.40;2.90;;;;;;;18.99;55.83;99874.17;111806;1248;22870;-78
2023/07/22 00:17:44;;;;;;;6.30;3.30;;;;;;;18.96;55.86;99872.41;112032;1248;22605;-79
2023/07/22 00:20:25;;;;;;;16.30;14.70;;;;;;;18.96;55.98;99875.09;111475;1254;21933;-79
2023/07/22 00:23:16;;;;;;;;;;;;;;;18.96;55.97;99869.80;111564;1253;21966;-78
2023/07/22 00:26:02;;;;;;;4.60;3.80;;;;;;;18.83;56.05;99861.28;111995;1242;21977;-80
2023/07/22 00:28:34;;;;;;;6.80;3.10;;;;;;;18.84;56.16;99860.38;112349;1243;22842;-80
2023/07/22 00:31:12;;;;;;;5.20;3.40;;;;;;;18.87;56.20;99851.27;112481;1242;21954;-80
2023/07/22 00:33:55;;;;;;;;;;;;;;;;;;;;;
2023/07/22 00:36:29;;;;;;;6.20;3.10;;;;;;;18.89;56.05;99848.48;112656;1239;21957;-80
2023/07/22 00:39:05;;;;;;;5.40;3.20;;;;;;;18.89;56.09;99854.80;113221;1232;21944;-80
2023/07/22 00:41:40;;;;;;;5.00;3.50;;;;;;;18.89;56.22;99856.63;113587;1232;21933;-79
2023/07/22 00:44:15;;;;;;;6.10;3.50;;;;;;;18.89;56.26;99856.02;113558;1232;22034;-80
2023/07/22 00:46:55;;;;;;;7.10;3.30;;;;;;;18.89;56.31;99849.75;113518;1231;21953;-82
2023/07/22 00:49:30;;;;;;;4.10;3.50;;;;;;;18.89;56.49;99848.52;113507;1231;21952;-81
2023/07/22 00:52:16;;;;;;;;;;;;;;;;;;;;;
2023/07/22 00:54:54;;;;;;;6.00;3.60;;;;;;;18.86;56.47;99843.59;112571;1244;23920;-80
2023/07/22 00:57:28;;;;;;;4.30;3.40;;;;;;;18.81;56.71;99849.10;111689;1250;21939;-80
2023/07/22 01:00:10;;;;;;;3.80;3.30;;;;;;;18.81;56.94;99858.30;111680;1250;21989;-80
2023/07/22 01:02:45;;;;;;;3.90;3.20;;;;;;;18.79;57.15;99863.05;111796;1250;21976;-81
2023/07/22 01:05:18;;;;;;;5.20;3.50;;;;;;;18.75;57.06;99858.23;111776;1250;22091;-80
2023/07/22 01:07:52;;;;;;;4.10;3.10;;;;;;;18.73;57.45;99857.98;111958;1250;21945;-80
2023/07/22 01:10:37;;;;;;;5.70;3.60;;;;;;;18.74;57.58;99859.52;111723;1241;23024;-81
2023/07/22 01:13:10;;;;;;;6.50;3.90;;;;;;;18.75;57.67;99858.55;112016;1244;24396;-81
2023/07/22 01:15:54;;;;;;;5.20;3.30;;;;;;;18.75;57.80;99861.71;112403;1242;23665;-79
2023/07/22 01:18:30;;;;;;;6.80;3.30;;;;;;;18.77;57.80;99859.84;112194;1242;21970;-79
2023/07/22 01:21:03;;;;;;;3.60;3.30;;;;;;;18.77;57.89;99852.98;112270;1243;23472;-80
2023/07/22 01:23:52;;;;;;;7.40;3.80;;;;;;;18.78;58.00;99854.67;112544;1243;22751;-82
2023/07/22 01:26:26;;;;;;;4.20;3.20;;;;;;;18.76;57.82;99854.46;112384;1243;21965;-80
2023/07/22 01:29:08;;;;;;;4.20;3.80;;;;;;;18.73;57.92;99855.73;112432;1242;22423;-81
2023/07/22 01:31:55;;;;;;;6.90;3.40;;;;;;;18.70;58.01;99859.14;112644;1243;23817;-80
2023/07/22 01:34:42;;;;;;;6.30;3.30;;;;;;;18.70;58.13;99868.70;112346;1239;21958;-79
2023/07/22 01:37:13;;;;;;;4.70;3.30;;;;;;;18.68;58.16;99868.12;112612;1238;23565;-80
2023/07/22 01:39:50;;;;;;;5.90;3.10;;;;;;;18.64;58.21;99867.70;112553;1238;24331;-82
2023/07/22 01:42:21;;;;;;;4.70;3.00;;;;;;;18.61;58.54;99860.39;112321;1243;22076;-80
2023/07/22 01:45:06;;;;;;;3.70;2.90;;;;;;;18.59;58.66;99851.73;112466;1242;21983;-78
2023/07/22 01:47:40;;;;;;;4.90;3.60;;;;;;;18.57;58.77;99850.67;112568;1242;23681;-81
2023/07/22 01:50:18;;;;;;;7.00;3.10;;;;;;;18.55;58.92;99847.98;112382;1234;22826;-80
2023/07/22 01:52:52;;;;;;;5.10;2.20;;;;;;;18.51;58.96;99834.89;112589;1242;23775;-79
2023/07/22 01:55:33;;;;;;;4.80;3.00;;;;;;;18.56;59.07;99844.19;111954;1247;21950;-80
2023/07/22 01:58:28;;;;;;;4.30;2.70;;;;;;;18.56;59.32;99847.01;112440;1240;21963;-81
2023/07/22 02:01:00;;;;;;;4.50;3.40;;;;;;;18.54;59.23;99850.15;112747;1241;21985;-80
2023/07/22 02:03:44;;;;;;;5.80;3.10;;;;;;;18.53;59.37;99853.03;112676;1240;21957;-80
2023/07/22 02:06:17;;;;;;;4.80;3.00;;;;;;;18.51;59.25;99850.92;112752;1236;21982;-80
2023/07/22 02:09:08;;;;;;;3.20;2.90;;;;;;;18.48;59.29;99854.52;113149;1237;23957;-81
2023/07/22 02:11:43;;;;;;;4.20;2.90;;;;;;;18.43;59.29;99853.48;112433;1242;23685;-79
2023/07/22 02:14:15;;;;;;;4.80;3.20;;;;;;;18.42;59.60;99849.90;112953;1238;21948;-81
2023/07/22 02:16:55;;;;;;;6.10;3.50;;;;;;;18.42;59.61;99858.34;113293;1238;23576;-80
2023/07/22 02:19:36;;;;;;;3.60;3.00;;;;;;;18.42;59.73;99861.66;113166;1238;21925;-80
2023/07/22 02:22:10;;;;;;;7.00;3.20;;;;;;;18.43;59.71;99864.78;112779;1233;22292;-80
2023/07/22 02:24:45;;;;;;;7.50;3.10;;;;;;;18.40;59.76;99868.91;112901;1238;23767;-80
2023/07/22 02:27:16;;;;;;;5.00;3.00;;;;;;;18.37;59.77;99869.99;112526;1243;21987;-80
2023/07/22 02:29:55;;;;;;;6.30;3.10;;;;;;;18.35;60.07;99875.09;112486;1237;23696;-80
2023/07/22 02:32:25;;;;;;;7.70;3.70;;;;;;;18.34;60.28;99879.56;113086;1237;21941;-80
2023/07/22 02:34:57;;;;;;;7.40;3.30;;;;;;;18.33;60.25;99882.30;112667;1240;22811;-78
2023/07/22 02:37:26;;;;;;;6.10;3.70;;;;;;;18.28;60.32;99888.98;113203;1240;21974;-81
2023/07/22 02:40:11;;;;;;;5.70;4.10;;;;;;;18.23;60.43;99886.03;112687;1240;21990;-80
2023/07/22 02:42:40;;;;;;;4.00;3.30;;;;;;;18.20;60.73;99892.63;112284;1245;23038;-81
2023/07/22 02:45:16;;;;;;;;;;;;;;;18.17;60.72;99901.68;112311;1242;23652;-80
2023/07/22 02:47:47;;;;;;;7.90;4.30;;;;;;;18.01;61.10;99905.65;112526;1242;21963;-79
2023/07/22 02:50:22;;;;;;;5.80;3.80;;;;;;;17.94;61.31;99902.02;112693;1242;23806;-81
2023/07/22 02:52:52;;;;;;;4.90;3.30;;;;;;;17.96;61.37;99915.42;112456;1239;23665;-79
2023/07/22 02:55:36;;;;;;;5.60;4.10;;;;;;;17.94;61.66;99919.95;113199;1238;22006;-80
2023/07/22 02:58:25;;;;;;;5.30;3.80;;;;;;;17.91;61.90;99924.39;112962;1238;21921;-81
2023/07/22 03:01:08;;;;;;;9.50;4.20;;;;;;;17.89;61.95;99922.23;112882;1238;22011;-79
2023/07/22 03:03:54;;;;;;;7.40;4.20;;;;;;;17.87;62.17;99925.44;112345;1243;21970;-79
2023/07/22 03:06:42;;;;;;;6.20;3.90;;;;;;;17.84;62.38;99924.03;112278;1244;22427;-79
2023/07/22 03:09:28;;;;;;;6.10;3.90;;;;;;;17.80;62.40;99920.46;112397;1243;21987;-82
2023/07/22 03:12:20;;;;;;;5.80;3.90;;;;;;;17.80;62.87;99917.14;112683;1242;21966;-80
2023/07/22 03:15:18;;;;;;;6.90;4.00;;;;;;;17.81;62.92;99921.41;112262;1244;22016;-77
2023/07/22 03:17:48;;;;;;;4.80;3.90;;;;;;;17.83;62.84;99926.38;112196;1244;22504;-80
2023/07/22 03:20:21;;;;;;;5.70;3.70;;;;;;;17.83;62.88;99930.09;112776;1238;24273;-80
2023/07/22 03:22:52;;;;;;;7.40;3.70;;;;;;;17.82;62.94;99935.78;113238;1232;23669;-79
2023/07/22 03:25:24;;;;;;;4.70;4.10;;;;;;;17.83;62.94;99933.98;113553;1231;22051;-80
2023/07/22 03:28:07;;;;;;;9.50;4.80;;;;;;;17.78;63.01;99927.63;113941;1231;23569;-79
2023/07/22 03:30:42;;;;;;;6.30;3.90;;;;;;;17.80;63.15;99930.98;113664;1231;21963;-80
2023/07/22 03:33:29;;;;;;;7.10;4.40;;;;;;;17.80;63.14;99932.96;112897;1237;22028;-81
2023/07/22 03:36:07;;;;;;;6.30;4.00;;;;;;;17.80;63.21;99925.36;113112;1238;21963;-81
2023/07/22 03:38:43;;;;;;;;;;;;;;;17.83;63.29;99931.34;113005;1237;23001;-80
2023/07/22 03:41:42;;;;;;;6.60;3.90;;;;;;;17.75;63.50;99932.41;113342;1237;22955;-80
2023/07/22 03:44:19;;;;;;;6.90;4.30;;;;;;;17.76;63.29;99932.54;113295;1237;21952;-80
2023/07/22 03:46:59;;;;;;;14.40;11.30;;;;;;;17.81;63.19;99935.52;112951;1237;21941;-80
2023/07/22 03:49:34;;;;;;;30.40;26.80;;;;;;;17.83;63.08;99941.04;113130;1237;21925;-81
2023/07/22 03:52:20;;;;;;;34.70;31.20;;;;;;;17.78;63.06;99930.98;113731;1231;21945;-80
2023/07/22 03:54:52;;;;;;;36.00;32.50;;;;;;;17.85;63.08;99939.76;113903;1226;23692;-81
2023/07/22 03:57:37;;;;;;;36.10;31.50;;;;;;;17.87;62.93;99942.30;113713;1231;21931;-81
2023/07/22 04:00:11;;;;;;;31.50;27.70;;;;;;;17.85;63.11;99939.26;113641;1231;23642;-80
2023/07/22 04:02:55;;;;;;;25.70;23.10;;;;;;;17.92;63.00;99949.11;113278;1236;22326;-80
2023/07/22 04:05:38;;;;;;;23.10;20.40;;;;;;;17.92;63.05;99949.16;113358;1236;23568;-83
2023/07/22 04:08:18;;;;;;;19.70;16.40;;;;;;;17.93;62.88;99948.68;112663;1242;22701;-80
2023/07/22 04:10:55;;;;;;;15.80;14.20;;;;;;;17.95;62.82;99952.79;112621;1242;22238;-81
2023/07/22 04:13:42;;;;;;;15.70;12.80;;;;;;;17.99;63.13;99953.77;112351;1242;21982;-79
2023/07/22 04:16:11;;;;;;;12.70;11.30;;;;;;;18.06;63.17;99951.65;112472;1242;21967;-80
2023/07/22 04:18:49;;;;;;;11.30;8.70;;;;;;;18.13;62.88;99953.92;112412;1242;21969;-79
2023/07/22 04:21:23;;;;;;;7.80;6.00;;;;;;;18.17;62.65;99951.14;112691;1238;22797;-80
2023/07/22 04:24:01;;;;;;;7.60;5.10;;;;;;;18.19;62.53;99952.55;113127;1238;21985;-79
2023/07/22 04:26:34;;;;;;;;;;;;;;;18.24;62.55;99953.07;113516;1232;21961;-77
2023/07/22 04:29:12;;;;;;;6.40;4.90;;;;;;;18.20;62.80;99960.59;112927;1238;21967;-78
2023/07/22 04:31:45;;;;;;;5.60;3.60;;;;;;;18.27;62.65;99961.98;112962;1238;23834;-79
2023/07/22 04:34:21;;;;;;;6.50;3.90;;;;;;;18.28;62.34;99956.47;112908;1238;23465;-79
2023/07/22 04:36:57;;;;;;;5.40;4.00;;;;;;;18.43;62.28;99960.46;112862;1239;21967;-80
2023/07/22 04:39:33;;;;;;;5.80;4.00;;;;;;;18.61;62.44;99963.84;113092;1238;22094;-80
2023/07/22 04:42:16;;;;;;;5.20;3.70;;;;;;;18.76;61.93;99965.17;113087;1238;21949;-79
2023/07/22 04:44:50;;;;;;;4.30;3.80;;;;;;;18.85;61.41;99972.38;113073;1238;22037;-80
2023/07/22 04:47:32;;;;;;;4.50;3.60;;;;;;;18.92;60.78;99973.91;112925;1231;24354;-78
2023/07/22 04:50:24;;;;;;;5.70;3.90;;;;;;;18.95;60.38;99979.56;113905;1223;21941;-79
2023/07/22 04:52:57;;;;;;;7.40;3.60;;;;;;;18.95;60.24;99981.48;112896;1237;21948;-81
2023/07/22 04:55:29;;;;;;;5.60;3.90;;;;;;;19.03;60.45;99983.64;112106;1244;22012;-79
2023/07/22 04:58:03;;;;;;;5.90;3.80;;;;;;;19.18;60.38;99981.40;111698;1249;24151;-80
2023/07/22 05:00:37;;;;;;;6.00;4.20;;;;;;;19.38;59.94;99987.43;111258;1254;21966;-79
2023/07/22 05:03:07;;;;;;;5.50;4.00;;;;;;;19.62;59.85;99991.43;111658;1254;21968;-80
2023/07/22 05:05:59;;;;;;;6.30;4.20;;;;;;;19.89;59.26;99994.97;111668;1252;21970;-84
2023/07/22 05:08:41;;;;;;;7.60;3.80;;;;;;;20.14;58.61;99997.81;111159;1257;22569;-78
2023/07/22 05:11:15;;;;;;;4.40;3.40;;;;;;;20.45;58.31;99998.73;111146;1258;21970;-79
2023/07/22 05:13:45;;;;;;;5.10;3.50;;;;;;;20.71;57.39;99986.31;111241;1252;23722;-79
2023/07/22 05:16:18;;;;;;;5.00;4.00;;;;;;;21.10;57.09;99975.86;111580;1247;21945;-79
2023/07/22 05:18:55;;;;;;;4.60;4.10;;;;;;;21.51;55.84;99989.27;112240;1242;21954;-80
2023/07/22 05:21:36;;;;;;;5.30;3.60;;;;;;;21.81;54.59;99989.95;112663;1242;23036;-78
2023/07/22 05:24:20;;;;;;;7.10;4.80;;;;;;;21.92;53.23;99996.42;111864;1248;23690;-79
2023/07/22 05:27:04;;;;;;;6.40;3.70;;;;;;;22.08;53.74;99997.05;112562;1242;21952;-79
2023/07/22 05:29:45;;;;;;;3.90;3.50;;;;;;;22.36;53.11;100001.57;112688;1242;21982;-81
2023/07/22 05:32:22;;;;;;;8.10;4.10;;;;;;;22.60;52.09;100005.56;112399;1242;21955;-79
2023/07/22 05:35:04;;;;;;;3.50;3.20;;;;;;;22.73;51.30;100008.42;112294;1242;21961;-81
2023/07/22 05:37:40;;;;;;;7.60;3.60;;;;;;;22.97;51.44;100011.11;113070;1237;21949;-79
2023/07/22 05:40:22;;;;;;;4.50;3.40;;;;;;;23.14;50.45;100014.17;113241;1237;23099;-79
2023/07/22 05:43:06;;;;;;;4.50;4.00;;;;;;;23.10;49.63;100012.56;112656;1238;23004;-80
2023/07/22 05:45:51;;;;;;;3.60;3.30;;;;;;;23.06;49.80;100010.11;113123;1238;21943;-83
2023/07/22 05:48:39;;;;;;;6.20;3.10;;;;;;;23.03;49.69;100009.85;112938;1238;22988;-83
2023/07/22 05:51:23;;;;;;;5.20;3.50;;;;;;;23.13;50.03;100002.36;113134;1238;22078;-81
2023/07/22 05:53:58;;;;;;;5.80;2.80;;;;;;;23.33;49.50;100001.01;113139;1238;22101;-81
2023/07/22 05:56:39;;;;;;;4.60;2.80;;;;;;;23.54;48.96;100000.51;112652;1242;22025;-82
2023/07/22 05:59:18;;;;;;;6.70;3.60;;;;;;;23.76;48.43;99998.88;112682;1242;21941;-81
2023/07/22 06:01:51;;;;;;;4.10;2.90;;;;;;;23.94;47.50;99995.17;113134;1235;22044;-83
2023/07/22 06:04:23;;;;;;;3.70;3.00;;;;;;;24.06;46.68;99999.00;112770;1242;23687;-84
2023/07/22 06:07:19;;;;;;;5.50;2.90;;;;;;;24.14;46.53;100004.79;112779;1241;22106;-84
2023/07/22 06:10:04;;;;;;;5.20;2.80;;;;;;;24.27;45.99;100003.66;112770;1241;23039;-83
2023/07/22 06:16:03;;;;;;;4.60;2.60;;;;;;;24.22;45.49;100007.69;112215;1248;21996;-83
2023/07/22 06:19:01;;;;;;;4.20;2.20;;;;;;;24.45;45.63;100009.97;112006;1250;21973;-82
2023/07/22 06:21:31;;;;;;;5.50;2.60;;;;;;;24.77;45.21;100017.14;111592;1252;21997;-84
2023/07/22 06:24:03;;;;;;;3.70;2.30;;;;;;;25.01;44.44;100015.15;111709;1252;21987;-83
2023/07/22 06:26:48;;;;;;;5.00;2.10;;;;;;;25.04;43.09;100020.30;111158;1256;21971;-80
2023/07/22 06:29:19;;;;;;;3.90;2.40;;;;;;;24.80;42.71;100024.23;111326;1256;22094;-84
2023/07/22 06:32:00;;;;;;;3.70;2.00;;;;;;;24.62;42.98;100026.22;111491;1253;21973;-81
2023/07/22 06:34:51;;;;;;;3.00;2.20;;;;;;;24.51;43.37;100029.67;111509;1254;23486;-81
2023/07/22 06:37:31;;;;;;;3.50;1.80;;;;;;;24.54;43.35;100030.09;111518;1254;23711;-82
2023/07/22 06:40:08;;;;;;;4.70;2.50;;;;;;;24.72;43.63;100034.69;111740;1248;22209;-80
2023/07/22 06:42:49;;;;;;;3.00;2.00;;;;;;;24.92;42.68;100037.10;111787;1250;22084;-81
2023/07/22 06:45:52;;;;;;;3.00;2.10;;;;;;;24.89;41.90;100039.39;112541;1244;23113;-82
2023/07/22 06:48:45;;;;;;;7.20;1.80;;;;;;;24.61;41.96;100039.72;112412;1243;23417;-82
2023/07/22 06:51:53;;;;;;;3.60;2.20;;;;;;;24.50;42.35;100033.30;112646;1243;21910;-83
2023/07/22 06:54:39;;;;;;;4.90;2.00;;;;;;;24.57;42.86;100033.71;113374;1237;22082;-81
2023/07/22 06:57:40;;;;;;;7.00;3.00;;;;;;;24.71;42.47;100034.25;113014;1237;21947;-82
2023/07/22 07:00:15;;;;;;;2.60;2.00;;;;;;;24.75;42.37;100033.46;113212;1233;21938;-82
2023/07/22 07:03:05;;;;;;;4.30;2.70;;;;;;;24.81;42.48;100039.58;113345;1237;22188;-83
2023/07/22 07:05:50;;;;;;;5.80;2.50;;;;;;;24.85;42.28;100040.58;112438;1242;298292;-81
2023/07/22 07:08:42;;;;;;;3.80;2.20;;;;;;;25.08;42.51;100042.73;112704;1242;23742;-82
2023/07/22 07:11:46;;;;;;;2.80;2.20;;;;;;;25.21;41.68;100039.22;112785;1242;24174;-80
2023/07/22 07:14:24;;;;;;;5.40;2.30;;;;;;;25.39;42.07;100041.50;112670;1242;24356;-78
2023/07/22 07:17:02;;;;;;;2.70;2.10;;;;;;;25.68;41.37;100042.16;112626;1242;21974;-81
2023/07/22 07:19:37;;;;;;;4.40;2.40;;;;;;;25.80;40.41;100047.27;112702;1242;21962;-80
2023/07/22 07:22:14;;;;;;;4.90;2.30;;;;;;;25.81;39.85;100049.81;112422;1244;22974;-80
2023/07/22 07:24:53;;;;;;;5.80;2.10;;;;;;;25.65;39.12;100057.66;112305;1245;22094;-81
2023/07/22 07:27:34;;;;;;;5.20;2.20;;;;;;;25.52;39.78;100056.45;112216;1245;21961;-79
2023/07/22 07:30:08;;;;;;;3.00;1.80;;;;;;;25.61;39.64;100056.02;112464;1245;21942;-81
2023/07/22 07:33:06;;;;;;;3.80;3.10;;;;;;;25.58;39.24;100055.71;112254;1245;22175;-79
2023/07/22 07:35:36;;;;;;;3.60;2.20;;;;;;;25.58;39.15;100058.54;112079;1245;22185;-81
2023/07/22 07:38:09;;;;;;;5.30;2.20;;;;;;;25.55;39.01;100062.07;111939;1250;22012;-80
2023/07/22 07:40:53;;;;;;;5.70;2.30;;;;;;;25.55;38.90;100063.65;111942;1250;22007;-81
2023/07/22 07:43:40;;;;;;;4.10;2.30;;;;;;;25.53;38.68;100067.58;111791;1250;21954;-80
2023/07/22 07:46:29;;;;;;;3.70;2.10;;;;;;;25.69;38.81;100069.86;111394;1250;22123;-79
2023/07/22 07:49:01;;;;;;;3.60;2.30;;;;;;;25.84;38.25;100070.16;111756;1243;22391;-80
2023/07/22 07:51:40;;;;;;;6.30;2.10;;;;;;;25.76;37.95;100073.52;112322;1245;22811;-81
2023/07/22 07:54:16;;;;;;;6.10;2.80;;;;;;;25.83;38.36;100081.66;112285;1245;22337;-81
2023/07/22 07:56:48;;;;;;;3.10;2.00;;;;;;;25.92;37.56;100085.44;112635;1239;22343;-82
2023/07/22 07:59:22;;;;;;;3.90;2.40;;;;;;;25.81;37.45;100084.96;112466;1243;21977;-80
2023/07/22 08:01:59;;;;;;;2.50;2.20;;;;;;;25.66;37.81;100080.05;112352;1243;22495;-81
2023/07/22 08:04:48;;;;;;;;;;;;;;;;;;;;;
2023/07/22 08:07:47;;;;;;;4.60;2.00;;;;;;;25.83;37.66;100083.80;112361;1244;23612;-84
2023/07/22 08:11:14;;;;;;;6.30;2.10;;;;;;;26.10;37.70;100089.02;112437;1244;23746;-81
2023/07/22 08:15:00;;;;;;;6.20;1.80;;;;;;;25.98;36.91;100094.02;112326;1244;21978;-78
2023/07/22 08:18:28;;;;;;;2.10;1.80;;;;;;;25.94;37.41;100095.36;113241;1239;21973;-78
2023/07/22 08:21:31;;;;;;;;;;;;;;;;;;;;;
2023/07/22 08:24:09;;;;;;;6.20;2.10;;;;;;;26.36;37.46;100099.98;112829;1238;23747;-79
2023/07/22 08:26:49;;;;;;;5.30;2.70;;;;;;;26.52;36.89;100100.75;113339;1231;22992;-79
2023/07/22 08:29:31;;;;;;;;;;;;;;;;;;;;;
2023/07/22 08:32:07;;;;;;;10.60;2.60;;;;;;;26.85;36.66;100108.92;112619;1239;21953;-77
2023/07/22 08:34:43;;;;;;;4.40;2.50;;;;;;;27.03;36.23;100110.27;112800;1239;23610;-78
2023/07/22 08:37:26;;;;;;;3.70;2.00;;;;;;;27.12;35.60;100096.62;112530;1239;21936;-79
2023/07/22 08:40:09;;;;;;;5.80;2.50;;;;;;;26.96;35.68;100107.02;112354;1244;23050;-79
2023/07/22 08:42:55;;;;;;;5.00;2.40;;;;;;;26.87;36.10;100110.33;112147;1244;23139;-78
2023/07/22 08:45:36;;;;;;;4.60;2.60;;;;;;;26.69;35.90;100112.59;112113;1244;22338;-79
2023/07/22 08:48:21;;;;;;;5.10;2.50;;;;;;;26.41;36.80;100114.06;112671;1238;22954;-77
2023/07/22 08:51:14;;;;;;;6.20;2.40;;;;;;;26.33;37.17;100119.92;112877;1238;23681;-80
2023/07/22 08:54:17;;;;;;;;;;;;;;;;;;;;;
2023/07/22 08:57:29;;;;;;;4.70;2.40;;;;;;;25.95;36.86;100126.99;112328;1244;21965;-80
2023/07/22 09:00:06;;;;;;;9.50;3.10;;;;;;;25.94;37.27;100131.34;113008;1238;21948;-80
2023/07/22 09:02:48;;;;;;;7.10;2.90;;;;;;;26.08;37.23;100129.25;112846;1238;21962;-77
2023/07/22 09:05:29;;;;;;;5.20;3.00;;;;;;;26.13;36.94;100136.69;112536;1238;22056;-79
2023/07/22 09:08:08;;;;;;;4.80;2.30;;;;;;;26.11;37.04;100141.52;113046;1238;23576;-80
2023/07/22 09:10:59;;;;;;;4.00;2.50;;;;;;;26.26;36.87;100151.85;112134;1247;22814;-79
2023/07/22 09:13:35;;;;;;;4.70;2.20;;;;;;;26.36;36.37;100147.62;112294;1245;22506;-78
2023/07/22 09:16:32;;;;;;;8.20;2.80;;;;;;;26.53;36.66;100145.26;112392;1245;21988;-79
2023/07/22 09:19:22;;;;;;;6.00;2.50;;;;;;;26.80;36.09;100151.10;112189;1245;21969;-79
2023/07/22 09:21:59;;;;;;;7.40;2.30;;;;;;;26.95;35.59;100142.11;111926;1245;21975;-80
2023/07/22 09:24:36;;;;;;;3.60;2.50;;;;;;;26.98;34.90;100150.55;111582;1252;22006;-79
2023/07/22 09:27:46;;;;;;;;;;;;;;;;;;;;;
2023/07/22 09:30:44;;;;;;;;;;;;;;;;;;;;;
2023/07/22 09:33:36;;;;;;;3.50;2.30;;;;;;;26.47;35.76;100156.69;111469;1253;21986;-79
2023/07/22 09:36:34;;;;;;;3.80;2.20;;;;;;;26.44;35.12;100160.60;111485;1252;23505;-80
2023/07/22 09:40:01;;;;;;;5.50;2.00;;;;;;;26.01;35.31;100165.20;110856;1261;21998;-80
2023/07/22 09:43:19;;;;;;;;;;;;;;;;;;;;;
2023/07/22 09:46:12;;;;;;;8.70;1.70;;;;;;;26.22;35.71;100160.10;112124;1248;22436;-80
2023/07/22 09:49:11;;;;;;;5.20;1.90;;;;;;;26.51;35.34;100154.52;112121;1249;22181;-80
2023/07/22 09:51:56;;;;;;;5.80;2.00;;;;;;;26.63;34.10;100157.13;111658;1253;21966;-80
2023/07/22 09:55:07;;;;;;;4.40;1.60;;;;;;;26.66;33.83;100160.81;111415;1252;22919;-82
2023/07/22 09:58:08;;;;;;;6.80;2.20;;;;;;;26.72;33.79;100163.53;111853;1251;22004;-81
2023/07/22 10:01:15;;;;;;;8.40;2.10;;;;;;;26.71;33.72;100163.85;111636;1252;21983;-81
2023/07/22 10:04:25;;;;;;;9.50;2.30;;;;;;;26.56;33.03;100161.45;110870;1262;22002;-81
2023/07/22 10:08:11;;;;;;;20.20;2.60;;;;;;;26.17;33.53;100163.14;110687;1262;22176;-82
2023/07/22 10:11:32;;;;;;;5.00;1.50;;;;;;;26.10;34.34;100168.56;111014;1261;21972;-82
2023/07/22 10:14:34;;;;;;;4.10;1.40;;;;;;;26.08;34.22;100168.26;111502;1256;21994;-83
2023/07/22 10:17:17;;;;;;;13.00;2.00;;;;;;;26.18;34.15;100165.73;111581;1251;21972;-82
2023/07/22 10:20:05;;;;;;;2.50;1.60;;;;;;;26.28;33.53;100159.91;111587;1256;21978;-82
2023/07/22 10:23:51;;;;;;;3.50;1.70;;;;;;;26.08;33.12;100166.58;111520;1256;21997;-80
2023/07/22 10:27:20;;;;;;;3.20;2.10;;;;;;;25.97;32.98;100165.85;111381;1257;21963;-84
2023/07/22 10:30:31;;;;;;;;;;;;;;;;;;;;;
2023/07/22 10:33:10;;;;;;;2.80;1.30;;;;;;;25.06;33.53;100175.89;111453;1256;23769;-83
2023/07/22 10:36:09;;;;;;;1.90;1.40;;;;;;;24.84;34.37;100172.83;111322;1259;23738;-82
2023/07/22 10:39:00;;;;;;;5.00;2.40;;;;;;;24.81;34.63;100173.63;111487;1254;21966;-81
2023/07/22 10:41:41;;;;;;;4.90;1.90;;;;;;;24.91;35.10;100164.90;111888;1249;21995;-79
2023/07/22 10:44:13;;;;;;;7.20;2.00;;;;;;;25.10;34.50;100174.95;111743;1249;21958;-76
2023/07/22 10:47:35;;;;;;;3.00;1.40;;;;;;;24.95;33.77;100173.95;112223;1241;22588;-81
2023/07/22 10:50:46;;;;;;;8.70;2.00;;;;;;;24.49;33.81;100180.64;112735;1238;22428;-83
2023/07/22 10:54:33;;;;;;;3.80;1.60;;;;;;;24.05;33.84;100177.91;113592;1237;23600;-82
2023/07/22 10:58:01;;;;;;;3.60;1.40;;;;;;;23.68;34.23;100187.30;113246;1237;22006;-82
2023/07/22 11:00:59;;;;;;;3.60;2.10;;;;;;;23.58;34.86;100185.60;113243;1237;23627;-81
2023/07/22 11:03:34;;;;;;;3.50;1.90;;;;;;;23.58;35.21;100188.54;112540;1243;21962;-81
2023/07/22 11:06:16;;;;;;;5.40;2.00;;;;;;;23.64;35.63;100190.61;112502;1239;24429;-82
2023/07/22 11:08:53;;;;;;;4.60;1.70;;;;;;;23.79;35.79;100183.77;113046;1238;23798;-81
2023/07/22 11:11:38;;;;;;;5.60;1.70;;;;;;;23.91;35.37;100191.52;113256;1238;22030;-83
2023/07/22 11:14:24;;;;;;;7.30;2.00;;;;;;;23.91;35.05;100198.45;113493;1238;21958;-82
2023/07/22 11:17:08;;;;;;;4.60;2.10;;;;;;;23.93;34.95;100194.84;113245;1238;23038;-82
2023/07/22 11:19:41;;;;;;;5.10;2.00;;;;;;;23.94;34.84;100188.38;113068;1238;23602;-81
2023/07/22 11:22:22;;;;;;;5.80;1.80;;;;;;;24.01;34.58;100186.14;113741;1231;21963;-82
2023/07/22 11:25:16;;;;;;;2.60;1.50;;;;;;;24.05;34.09;100184.98;113777;1231;21929;-81
2023/07/22 11:27:53;;;;;;;3.10;2.10;;;;;;;24.04;34.01;100182.42;114008;1231;21958;-81
2023/07/22 11:30:25;;;;;;;4.20;2.30;;;;;;;24.06;33.90;100187.24;113974;1231;21959;-83
2023/07/22 11:33:18;;;;;;;9.30;2.50;;;;;;;24.07;34.12;100182.69;113296;1238;21974;-79
2023/07/22 11:35:55;;;;;;;5.60;1.70;;;;;;;24.26;34.63;100190.79;113351;1237;21989;-83
2023/07/22 11:38:37;;;;;;;3.70;1.70;;;;;;;24.44;34.29;100190.02;113095;1237;23584;-80
2023/07/22 11:41:32;;;;;;;3.80;1.80;;;;;;;24.49;33.58;100180.81;113005;1237;21956;-78
2023/07/22 11:44:08;;;;;;;3.30;2.10;;;;;;;24.48;33.33;100181.52;113022;1237;21961;-79
2023/07/22 11:46:58;;;;;;;9.40;2.60;;;;;;;24.48;33.22;100172.59;113309;1237;22959;-80
2023/07/22 11:49:38;;;;;;;4.00;2.10;;;;;;;24.50;32.99;100178.45;113647;1237;22963;-80
2023/07/22 11:52:22;;;;;;;6.30;2.00;;;;;;;24.45;32.20;100180.86;113606;1231;21942;-81
2023/07/22 11:55:03;;;;;;;2.80;1.70;;;;;;;24.43;31.61;100178.24;113299;1237;21982;-78
2023/07/22 11:57:55;;;;;;;8.90;2.20;;;;;;;24.45;31.18;100180.05;113467;1237;22301;-81
2023/07/22 12:01:11;;;;;;;10.60;2.30;;;;;;;24.47;31.24;100171.30;113511;1232;22416;-80
2023/07/22 12:04:18;;;;;;;2.80;1.80;;;;;;;24.53;31.40;100177.09;113269;1237;21988;-79
2023/07/22 12:08:08;;;;;;;11.50;2.50;;;;;;;24.57;31.61;100174.27;112723;1237;21919;-75
2023/07/22 12:11:59;;;;;;;8.60;3.30;;;;;;;24.66;31.32;100183.48;112156;1248;22005;-77
2023/07/22 12:14:49;;;;;;;4.20;1.70;;;;;;;24.75;31.11;100189.14;112484;1244;23797;-76
2023/07/22 12:17:44;;;;;;;6.90;2.60;;;;;;;24.72;30.81;100189.30;112464;1244;21959;-76
2023/07/22 12:20:39;;;;;;;6.60;2.40;;;;;;;24.61;30.60;100189.65;112262;1244;23581;-78
2023/07/22 12:23:33;;;;;;;4.50;1.90;;;;;;;24.59;30.48;100186.80;112008;1250;21975;-81
2023/07/22 12:26:12;;;;;;;7.80;2.00;;;;;;;24.63;30.53;100184.26;111709;1250;21951;-79
2023/07/22 12:29:20;;;;;;;3.80;2.00;;;;;;;24.75;30.53;100184.75;111957;1245;21961;-80
2023/07/22 12:31:53;;;;;;;3.50;1.90;;;;;;;24.79;30.50;100190.67;112009;1247;23694;-79
2023/07/22 12:34:38;;;;;;;4.80;1.80;;;;;;;24.83;30.62;100186.77;111441;1254;23028;-78
2023/07/22 12:37:20;;;;;;;9.60;2.20;;;;;;;24.94;30.34;100191.76;111342;1255;23681;-79
2023/07/22 12:40:23;;;;;;;4.30;1.70;;;;;;;24.99;30.14;100185.65;111241;1259;22380;-82
2023/07/22 12:43:33;;;;;;;2.10;1.90;;;;;;;25.07;30.00;100185.41;111622;1255;21997;-85
2023/07/22 12:46:46;;;;;;;6.40;1.90;;;;;;;25.17;29.86;100180.46;111968;1251;22025;-88
2023/07/22 12:50:29;;;;;;;;;;;;;;;;;;;;;
2023/07/22 12:53:49;;;;;;;4.20;2.40;;;;;;;25.48;29.77;100188.70;113214;1242;21977;-87
2023/07/22 12:57:33;;;;;;;4.90;2.20;;;;;;;25.54;29.90;100190.45;112916;1242;21961;-86
2023/07/22 13:01:13;;;;;;;;;;;;;;;;;;;;;
2023/07/22 13:05:06;;;;;;;;;;;;;;;;;;;;;
2023/07/22 13:09:58;;;;;;;;;;;;;;;;;;;;;
2023/07/22 13:13:46;;;;;;;;;;;;;;;;;;;;;
2023/07/22 13:17:11;;;;;;;3.20;2.10;;;;;;;24.87;30.30;100185.43;110869;1262;24360;-86